Time;durP1;ratioP1;P1;durP2;ratioP2;P2;SDS_P1;SDS_P2;PMS_P1;PMS_P2;Temp;Humidity;BMP_temperature;BMP_pressure;BME280_temperature;BME280_humidity;BME280_pressure;Samples;Min_cycle;Max_cycle;Signal;HPM_P1;HPM_P2
2023/10/16 00:01:03;;;;;;;0.50;0.50;;;8.60;65.00;;;;;;5148456;27;20021;-68
2023/10/16 00:03:30;;;;;;;0.57;0.57;;;8.60;65.10;;;;;;5138218;27;20076;-69
2023/10/16 00:05:56;;;;;;;0.60;0.60;;;8.60;65.30;;;;;;5144276;27;20050;-68
2023/10/16 00:08:22;;;;;;;0.50;0.50;;;8.60;65.40;;;;;;5153099;27;20047;-68
2023/10/16 00:10:58;;;;;;;0.60;0.60;;;8.70;65.20;;;;;;5148073;27;20022;-70
2023/10/16 00:13:28;;;;;;;0.50;0.50;;;8.70;65.40;;;;;;5149571;27;20041;-70
2023/10/16 00:15:55;;;;;;;0.95;0.95;;;8.70;65.50;;;;;;5138608;27;20058;-68
2023/10/16 00:18:23;;;;;;;1.05;1.05;;;8.70;65.80;;;;;;5153125;27;20476;-68
2023/10/16 00:20:51;;;;;;;1.02;0.98;;;8.70;65.80;;;;;;5147440;27;20027;-69
2023/10/16 00:23:17;;;;;;;0.45;0.45;;;8.80;65.80;;;;;;5135349;27;20050;-68
2023/10/16 00:25:44;;;;;;;0.50;0.50;;;8.80;65.50;;;;;;5142050;27;20478;-68
2023/10/16 00:28:11;;;;;;;0.57;0.57;;;8.80;65.40;;;;;;5152886;27;20031;-68
2023/10/16 00:30:40;;;;;;;0.50;0.50;;;8.70;65.20;;;;;;5147001;27;20072;-68
2023/10/16 00:33:06;;;;;;;0.50;0.50;;;8.70;65.20;;;;;;5151397;27;20026;-69
2023/10/16 00:35:32;;;;;;;0.45;0.45;;;8.70;65.40;;;;;;5140830;27;20440;-68
2023/10/16 00:37:58;;;;;;;0.60;0.60;;;8.70;65.50;;;;;;5143385;27;20035;-68
2023/10/16 00:40:33;;;;;;;0.82;0.82;;;8.80;65.70;;;;;;5141371;27;20467;-68
2023/10/16 00:43:12;;;;;;;0.68;0.68;;;8.80;65.50;;;;;;5152829;27;20130;-68
2023/10/16 00:45:49;;;;;;;0.50;0.50;;;8.80;65.50;;;;;;5144260;27;20118;-68
2023/10/16 00:48:17;;;;;;;0.50;0.50;;;8.70;65.50;;;;;;5156670;27;20114;-68
2023/10/16 00:50:49;;;;;;;0.40;0.40;;;8.70;65.50;;;;;;5147311;27;20101;-68
2023/10/16 00:53:23;;;;;;;0.60;0.60;;;8.70;65.20;;;;;;5151268;27;20057;-69
2023/10/16 00:55:50;;;;;;;0.57;0.57;;;8.70;65.00;;;;;;5144247;27;20027;-68
2023/10/16 00:58:18;;;;;;;0.50;0.50;;;8.70;64.90;;;;;;5134687;27;20480;-69
2023/10/16 01:00:47;;;;;;;0.47;0.47;;;8.60;64.80;;;;;;5142407;27;20091;-69
2023/10/16 01:03:14;;;;;;;0.40;0.40;;;8.60;64.90;;;;;;5154697;27;20467;-69
2023/10/16 01:05:42;;;;;;;0.57;0.57;;;8.60;65.20;;;;;;5143935;27;20550;-68
2023/10/16 01:08:09;;;;;;;0.55;0.55;;;8.60;65.20;;;;;;5156561;27;20471;-69
2023/10/16 01:10:37;;;;;;;0.50;0.50;;;8.60;65.00;;;;;;5141897;27;20079;-68
2023/10/16 01:13:08;;;;;;;0.60;0.60;;;8.60;65.10;;;;;;5133696;27;20396;-69
2023/10/16 01:15:35;;;;;;;0.50;0.50;;;8.60;65.40;;;;;;5144184;27;20496;-68
2023/10/16 01:18:01;;;;;;;0.52;0.52;;;8.60;65.60;;;;;;5136115;27;20027;-68
2023/10/16 01:20:26;;;;;;;0.93;0.93;;;8.60;65.60;;;;;;5139735;27;20471;-68
2023/10/16 01:22:52;;;;;;;1.02;1.02;;;8.60;65.60;;;;;;5154551;27;20022;-68
2023/10/16 01:25:18;;;;;;;0.50;0.50;;;8.60;65.60;;;;;;5141583;27;20519;-68
2023/10/16 01:27:44;;;;;;;0.50;0.50;;;8.60;65.50;;;;;;5135719;27;20063;-68
2023/10/16 01:30:10;;;;;;;0.60;0.60;;;8.60;65.30;;;;;;5136906;27;20077;-68
2023/10/16 01:32:39;;;;;;;0.70;0.70;;;8.60;65.20;;;;;;5153888;27;20026;-67
2023/10/16 01:35:08;;;;;;;0.50;0.50;;;8.60;65.30;;;;;;5138792;27;20098;-69
2023/10/16 01:37:41;;;;;;;1.30;1.25;;;8.60;65.40;;;;;;5135389;27;20031;-68
2023/10/16 01:40:21;;;;;;;0.50;0.50;;;8.50;65.40;;;;;;5140139;27;20024;-67
2023/10/16 01:42:54;;;;;;;0.70;0.70;;;8.60;65.20;;;;;;5153157;27;20026;-68
2023/10/16 01:45:20;;;;;;;0.40;0.40;;;8.50;65.40;;;;;;5141245;27;20026;-67
2023/10/16 01:47:47;;;;;;;0.50;0.50;;;8.50;65.40;;;;;;5146936;27;20028;-67
2023/10/16 01:50:21;;;;;;;0.50;0.50;;;8.50;65.50;;;;;;5136342;27;20023;-68
2023/10/16 01:52:47;;;;;;;0.55;0.55;;;8.50;65.70;;;;;;5153246;27;20524;-67
2023/10/16 01:55:16;;;;;;;0.50;0.50;;;8.50;65.50;;;;;;5147316;27;20033;-68
2023/10/16 01:57:45;;;;;;;0.50;0.50;;;8.50;65.40;;;;;;5134643;27;20031;-68
2023/10/16 02:00:17;;;;;;;0.50;0.50;;;8.50;65.60;;;;;;5142984;27;20456;-67
2023/10/16 02:02:45;;;;;;;1.25;1.15;;;8.50;65.90;;;;;;5152380;27;20019;-69
2023/10/16 02:05:12;;;;;;;1.33;1.23;;;8.60;65.70;;;;;;5138997;27;20019;-68
2023/10/16 02:07:41;;;;;;;0.50;0.50;;;8.60;66.00;;;;;;5135074;27;20028;-69
2023/10/16 02:10:12;;;;;;;0.50;0.50;;;8.60;66.30;;;;;;5145046;27;20023;-70
2023/10/16 02:12:40;;;;;;;0.50;0.50;;;8.70;66.60;;;;;;5153078;27;20448;-69
2023/10/16 02:15:08;;;;;;;0.52;0.52;;;8.80;66.80;;;;;;5136438;27;20034;-70
2023/10/16 02:17:37;;;;;;;0.43;0.43;;;8.80;67.00;;;;;;5134634;27;20123;-69
2023/10/16 02:20:11;;;;;;;0.60;0.60;;;8.90;66.90;;;;;;5143826;27;20015;-69
2023/10/16 02:22:36;;;;;;;0.50;0.50;;;9.00;66.90;;;;;;5144039;27;20027;-69
2023/10/16 02:25:08;;;;;;;3.13;1.95;;;9.00;66.90;;;;;;5150413;27;20375;-70
2023/10/16 02:27:34;;;;;;;0.60;0.60;;;9.10;66.80;;;;;;5154559;27;20030;-69
2023/10/16 02:30:15;;;;;;;0.50;0.50;;;9.10;66.70;;;;;;5146538;27;20022;-68
2023/10/16 02:32:42;;;;;;;0.57;0.57;;;9.20;66.70;;;;;;5144362;27;20034;-67
2023/10/16 02:35:13;;;;;;;0.50;0.50;;;9.20;66.50;;;;;;5142773;27;20268;-68
2023/10/16 02:37:41;;;;;;;0.40;0.40;;;9.20;66.40;;;;;;5140236;27;20114;-68
2023/10/16 02:40:17;;;;;;;0.43;0.43;;;9.20;66.50;;;;;;5142343;27;20041;-67
2023/10/16 02:42:43;;;;;;;0.55;0.55;;;9.20;66.50;;;;;;5152753;27;20026;-67
2023/10/16 02:45:24;;;;;;;0.50;0.50;;;9.20;66.50;;;;;;5142347;27;20064;-68
2023/10/16 02:47:49;;;;;;;0.50;0.50;;;9.20;66.30;;;;;;5153967;27;20059;-68
2023/10/16 02:50:15;;;;;;;0.50;0.50;;;9.20;66.00;;;;;;5143853;27;20027;-68
2023/10/16 02:52:41;;;;;;;0.40;0.40;;;9.20;65.90;;;;;;5151943;27;20030;-67
2023/10/16 02:55:07;;;;;;;1.95;1.42;;;9.10;65.90;;;;;;5141926;27;20019;-68
2023/10/16 02:57:33;;;;;;;0.57;0.57;;;9.10;65.80;;;;;;5134085;27;20084;-68
2023/10/16 02:59:58;;;;;;;0.60;0.60;;;9.00;65.50;;;;;;5132963;27;20015;-69
2023/10/16 03:02:27;;;;;;;0.40;0.40;;;9.00;65.60;;;;;;5141048;27;20033;-69
2023/10/16 03:04:54;;;;;;;0.50;0.50;;;9.00;65.60;;;;;;5143521;27;20090;-68
2023/10/16 03:07:20;;;;;;;0.50;0.50;;;8.90;65.50;;;;;;5151821;27;20031;-68
2023/10/16 03:09:49;;;;;;;0.50;0.50;;;8.90;65.60;;;;;;5154224;27;20018;-68
2023/10/16 03:12:15;;;;;;;0.50;0.50;;;8.80;65.50;;;;;;5134753;27;20047;-69
2023/10/16 03:15:01;;;;;;;0.50;0.50;;;8.80;65.30;;;;;;5138273;27;20123;-68
2023/10/16 03:17:34;;;;;;;0.65;0.65;;;8.80;65.30;;;;;;5133263;27;20030;-68
2023/10/16 03:20:01;;;;;;;0.57;0.57;;;8.70;65.20;;;;;;5133445;27;20015;-71
2023/10/16 03:22:28;;;;;;;0.50;0.50;;;8.70;65.30;;;;;;5141395;27;20026;-69
2023/10/16 03:24:55;;;;;;;0.55;0.55;;;8.80;65.30;;;;;;5153552;27;20015;-70
2023/10/16 03:27:28;;;;;;;0.40;0.40;;;8.70;65.60;;;;;;5142412;27;20329;-69
2023/10/16 03:29:55;;;;;;;0.55;0.55;;;8.70;65.70;;;;;;5134052;27;20092;-69
2023/10/16 03:32:23;;;;;;;0.50;0.50;;;8.70;65.70;;;;;;5150269;27;20042;-69
2023/10/16 03:34:49;;;;;;;0.50;0.50;;;8.70;65.80;;;;;;5152476;27;20023;-69
2023/10/16 03:37:16;;;;;;;0.95;0.82;;;8.70;65.80;;;;;;5149213;27;20023;-69
2023/10/16 03:39:44;;;;;;;0.52;0.52;;;8.60;65.80;;;;;;5132220;27;20031;-70
2023/10/16 03:42:10;;;;;;;0.70;0.70;;;8.70;65.70;;;;;;5144552;27;20125;-69
2023/10/16 03:44:38;;;;;;;0.50;0.50;;;8.70;65.70;;;;;;5152586;27;20022;-69
2023/10/16 03:47:05;;;;;;;0.68;0.68;;;8.60;65.50;;;;;;5144459;27;20429;-69
2023/10/16 03:49:31;;;;;;;0.50;0.50;;;8.60;65.40;;;;;;5148328;27;20019;-70
2023/10/16 03:51:57;;;;;;;0.60;0.60;;;8.60;65.50;;;;;;5150362;27;20023;-69
2023/10/16 03:54:34;;;;;;;0.50;0.50;;;8.60;65.50;;;;;;5152291;27;20472;-69
2023/10/16 03:57:01;;;;;;;0.50;0.50;;;8.60;65.60;;;;;;5145086;27;20031;-70
2023/10/16 03:59:30;;;;;;;0.50;0.50;;;8.60;65.70;;;;;;5134059;27;20038;-70
2023/10/16 04:01:56;;;;;;;0.50;0.50;;;8.60;65.80;;;;;;5141851;27;20110;-70
2023/10/16 04:04:25;;;;;;;0.40;0.40;;;8.60;65.90;;;;;;5144451;27;20098;-70
2023/10/16 04:06:52;;;;;;;0.50;0.50;;;8.70;66.40;;;;;;5137484;27;20122;-70
2023/10/16 04:09:19;;;;;;;0.40;0.40;;;8.80;67.00;;;;;;5151568;27;20034;-70
2023/10/16 04:11:54;;;;;;;0.50;0.50;;;8.80;67.40;;;;;;5144640;27;20030;-70
2023/10/16 04:14:27;;;;;;;0.63;0.63;;;9.00;67.80;;;;;;5152890;27;20624;-70
2023/10/16 04:16:56;;;;;;;0.50;0.50;;;9.10;67.80;;;;;;5144620;27;20035;-70
2023/10/16 04:22:16;;;;;;;0.50;0.50;;;9.30;67.80;;;;;;5140364;27;20062;-70
2023/10/16 04:24:44;;;;;;;0.50;0.50;;;9.30;67.60;;;;;;5152213;27;20057;-70
2023/10/16 04:29:49;;;;;;;0.60;0.60;;;9.30;67.30;;;;;;5154192;27;20019;-68
2023/10/16 04:37:49;;;;;;;0.70;0.70;;;9.40;67.30;;;;;;5142550;27;20091;-69
2023/10/16 04:45:26;;;;;;;0.50;0.50;;;9.60;67.60;;;;;;5140412;27;20035;-69
2023/10/16 04:48:07;;;;;;;0.40;0.40;;;9.70;67.70;;;;;;5136868;27;20126;-68
2023/10/16 04:55:53;;;;;;;0.77;0.77;;;9.80;67.40;;;;;;5131798;27;20515;-70
2023/10/16 05:11:36;;;;;;;0.50;0.50;;;10.20;67.80;;;;;;5134708;27;20460;-70
2023/10/16 05:19:30;;;;;;;0.40;0.40;;;10.40;67.80;;;;;;5152350;27;20019;-69
2023/10/16 06:14:10;;;;;;;0.50;0.50;;;11.30;67.50;;;;;;5153684;27;20100;-69
2023/10/16 06:16:38;;;;;;;0.93;0.93;;;11.20;67.60;;;;;;5144267;27;20023;-70
2023/10/16 06:19:07;;;;;;;0.68;0.68;;;11.20;67.50;;;;;;5135074;27;20051;-70
2023/10/16 06:21:36;;;;;;;0.60;0.60;;;11.30;67.60;;;;;;5133359;27;20471;-70
2023/10/16 06:24:17;;;;;;;0.65;0.65;;;11.30;67.60;;;;;;5150498;27;20019;-70
2023/10/16 06:26:46;;;;;;;0.50;0.50;;;11.40;67.40;;;;;;5143383;27;20452;-70
2023/10/16 06:29:12;;;;;;;0.60;0.60;;;11.40;67.30;;;;;;5136090;27;20752;-70
2023/10/16 06:31:49;;;;;;;0.60;0.60;;;11.40;67.10;;;;;;5150890;27;20050;-70
2023/10/16 06:34:15;;;;;;;0.40;0.40;;;11.50;67.50;;;;;;5152075;27;20118;-70
2023/10/16 06:36:44;;;;;;;0.50;0.50;;;11.50;67.40;;;;;;5142582;27;20027;-70
2023/10/16 06:39:22;;;;;;;1.55;1.30;;;11.60;67.20;;;;;;5151477;27;20429;-70
2023/10/16 06:41:55;;;;;;;0.50;0.50;;;11.60;66.90;;;;;;5149989;27;20449;-71
2023/10/16 06:44:28;;;;;;;0.50;0.50;;;11.50;66.80;;;;;;5150641;27;20033;-71
2023/10/16 06:46:58;;;;;;;0.50;0.50;;;11.60;67.10;;;;;;5141374;27;20429;-71
2023/10/16 06:49:36;;;;;;;0.70;0.70;;;11.50;66.90;;;;;;5148919;27;20023;-70
2023/10/16 06:52:06;;;;;;;0.50;0.50;;;11.60;67.20;;;;;;5150413;27;20026;-71
2023/10/16 06:54:37;;;;;;;0.77;0.77;;;11.70;67.30;;;;;;5152964;27;20547;-71
2023/10/16 06:57:12;;;;;;;0.60;0.60;;;11.70;67.40;;;;;;5146585;27;20031;-71
2023/10/16 06:59:42;;;;;;;0.85;0.85;;;11.80;67.50;;;;;;5153580;27;20079;-71
2023/10/16 07:02:15;;;;;;;0.55;0.55;;;11.80;67.70;;;;;;5144132;27;20037;-70
2023/10/16 07:04:47;;;;;;;0.55;0.55;;;11.90;67.80;;;;;;5153090;27;20064;-71
2023/10/16 07:07:16;;;;;;;0.60;0.60;;;12.00;67.80;;;;;;5148073;27;20031;-70
2023/10/16 07:09:48;;;;;;;0.70;0.70;;;12.10;67.60;;;;;;5154006;27;20521;-70
2023/10/16 07:12:18;;;;;;;1.27;0.98;;;12.10;67.80;;;;;;5151214;27;20506;-70
2023/10/16 07:14:57;;;;;;;0.43;0.43;;;12.20;67.90;;;;;;5143367;27;20544;-70
2023/10/16 07:17:28;;;;;;;0.60;0.60;;;12.30;67.90;;;;;;5136507;27;20046;-71
2023/10/16 07:20:00;;;;;;;0.40;0.40;;;12.40;67.90;;;;;;5133514;27;20023;-70
2023/10/16 07:22:32;;;;;;;0.40;0.40;;;12.50;67.90;;;;;;5140960;27;20106;-70
2023/10/16 07:25:22;;;;;;;0.98;0.95;;;12.60;68.00;;;;;;5151794;27;20053;-70
2023/10/16 07:27:47;;;;;;;3.63;1.10;;;12.70;68.00;;;;;;5131987;27;20138;-71
2023/10/16 07:30:21;;;;;;;0.68;0.68;;;12.80;68.30;;;;;;5147238;27;20025;-70
2023/10/16 07:32:51;;;;;;;0.50;0.50;;;13.00;68.60;;;;;;5151013;27;20027;-71
2023/10/16 07:35:18;;;;;;;0.50;0.50;;;13.20;68.00;;;;;;5150104;27;20023;-71
2023/10/16 07:37:53;;;;;;;0.50;0.50;;;13.30;68.00;;;;;;5141415;27;20113;-71
2023/10/16 07:40:25;;;;;;;0.73;0.73;;;13.50;68.50;;;;;;5139865;27;20034;-70
2023/10/16 07:42:54;;;;;;;0.85;0.85;;;13.70;68.80;;;;;;5145492;27;20026;-70
2023/10/16 07:45:20;;;;;;;0.70;0.70;;;13.80;67.90;;;;;;5149789;27;20524;-70
2023/10/16 07:47:48;;;;;;;0.57;0.57;;;13.90;67.80;;;;;;5139655;27;20027;-70
2023/10/16 07:50:15;;;;;;;1.05;0.88;;;14.00;67.40;;;;;;5153005;27;20018;-70
2023/10/16 07:52:42;;;;;;;1.08;1.00;;;14.10;66.90;;;;;;5150498;27;20031;-71
2023/10/16 07:55:17;;;;;;;1.10;1.05;;;14.20;67.50;;;;;;5150536;27;20019;-70
2023/10/16 07:57:43;;;;;;;0.55;0.55;;;14.40;68.00;;;;;;5142180;27;20568;-70
2023/10/16 08:00:13;;;;;;;0.40;0.40;;;14.70;68.50;;;;;;5151799;27;20112;-70
2023/10/16 08:02:44;;;;;;;0.50;0.50;;;14.80;68.40;;;;;;5139249;27;20027;-70
2023/10/16 08:05:16;;;;;;;0.40;0.40;;;14.90;68.20;;;;;;5145475;27;20037;-70
2023/10/16 08:07:47;;;;;;;0.43;0.43;;;15.00;68.60;;;;;;5134382;27;20058;-70
2023/10/16 08:13:11;;;;;;;1.15;1.05;;;15.40;69.10;;;;;;5149149;27;20045;-70
2023/10/16 08:15:37;;;;;;;0.60;0.60;;;15.80;71.10;;;;;;5149312;27;20019;-70
2023/10/16 08:18:07;;;;;;;0.55;0.55;;;16.40;72.20;;;;;;5149033;27;20075;-70
2023/10/16 08:20:49;;;;;;;0.50;0.50;;;17.00;72.30;;;;;;5150319;27;20030;-69
2023/10/16 08:23:15;;;;;;;0.60;0.60;;;17.50;71.90;;;;;;5150215;27;20561;-69
2023/10/16 08:25:40;;;;;;;0.50;0.50;;;17.90;70.90;;;;;;5146902;27;20106;-69
2023/10/16 08:28:20;;;;;;;0.50;0.50;;;18.20;69.80;;;;;;5144066;27;20073;-69
2023/10/16 08:33:13;;;;;;;0.75;0.70;;;18.20;68.20;;;;;;5135634;27;20468;-69
2023/10/16 08:35:38;;;;;;;0.50;0.50;;;18.20;68.00;;;;;;5148274;27;20067;-70
2023/10/16 08:38:14;;;;;;;0.43;0.43;;;18.10;67.70;;;;;;5143680;27;20031;-70
2023/10/16 08:40:44;;;;;;;0.70;0.70;;;18.10;67.60;;;;;;5152638;27;20034;-70
2023/10/16 08:43:16;;;;;;;0.47;0.47;;;18.10;67.70;;;;;;5132059;27;20042;-70
2023/10/16 08:45:49;;;;;;;0.80;0.80;;;18.20;67.30;;;;;;5149042;27;20037;-69
2023/10/16 08:48:18;;;;;;;0.57;0.57;;;18.20;66.70;;;;;;5142793;27;20475;-69
2023/10/16 08:50:52;;;;;;;0.43;0.43;;;18.20;66.60;;;;;;5152458;27;20022;-69
2023/10/16 08:53:30;;;;;;;0.50;0.50;;;18.20;66.40;;;;;;5146937;27;20026;-69
2023/10/16 08:56:03;;;;;;;0.47;0.47;;;18.30;66.40;;;;;;5149112;27;20483;-70
2023/10/16 08:58:33;;;;;;;0.40;0.40;;;18.30;66.00;;;;;;5134133;27;20027;-70
2023/10/16 09:00:59;;;;;;;0.70;0.70;;;18.30;65.80;;;;;;5152407;27;20480;-70
2023/10/16 09:03:26;;;;;;;0.55;0.55;;;18.30;64.30;;;;;;5150675;27;20076;-69
2023/10/16 09:05:51;;;;;;;0.70;0.70;;;18.30;64.40;;;;;;5152635;27;20087;-70
2023/10/16 09:08:17;;;;;;;1.27;1.13;;;18.30;64.60;;;;;;5155431;27;20025;-69
2023/10/16 09:10:44;;;;;;;0.40;0.40;;;18.30;63.80;;;;;;5154088;27;20072;-69
2023/10/16 09:13:17;;;;;;;0.60;0.60;;;18.30;63.40;;;;;;5148040;27;20085;-69
2023/10/16 09:15:45;;;;;;;0.30;0.30;;;18.30;63.30;;;;;;5150362;27;20049;-69
2023/10/16 09:18:14;;;;;;;0.88;0.85;;;18.40;63.80;;;;;;5152065;27;20035;-70
2023/10/16 09:20:41;;;;;;;0.73;0.73;;;18.40;63.80;;;;;;5155944;27;20027;-69
2023/10/16 09:23:08;;;;;;;0.40;0.40;;;18.50;63.20;;;;;;5149693;27;20048;-70
2023/10/16 09:25:33;;;;;;;1.23;1.17;;;18.50;63.00;;;;;;5152211;27;20516;-70
2023/10/16 09:27:59;;;;;;;0.57;0.57;;;18.50;62.20;;;;;;5136537;27;20121;-69
2023/10/16 09:30:28;;;;;;;1.00;0.95;;;18.50;61.00;;;;;;5155012;27;20074;-70
2023/10/16 09:32:54;;;;;;;0.40;0.40;;;18.40;60.40;;;;;;5149115;27;20027;-70
2023/10/16 09:35:30;;;;;;;0.47;0.47;;;18.40;60.20;;;;;;5154067;27;20506;-70
2023/10/16 09:38:17;;;;;;;0.75;0.75;;;18.40;60.10;;;;;;5145513;27;20054;-70
2023/10/16 09:41:37;;;;;;;0.40;0.40;;;18.30;60.50;;;;;;5155915;27;20113;-70
2023/10/16 09:43:48;;;;;;;0.50;0.50;;;18.40;60.20;;;;;;5150084;27;20034;-70
2023/10/16 09:46:48;;;;;;;0.63;0.63;;;18.40;60.90;;;;;;5150218;27;20113;-70
2023/10/16 09:49:21;;;;;;;0.80;0.80;;;18.50;61.00;;;;;;5135344;27;20563;-70
2023/10/16 09:51:47;;;;;;;0.57;0.57;;;18.60;60.80;;;;;;5151140;27;20038;-70
2023/10/16 09:54:14;;;;;;;0.50;0.50;;;18.60;60.40;;;;;;5153815;27;20030;-70
2023/10/16 09:56:44;;;;;;;0.50;0.50;;;18.50;59.50;;;;;;5144813;27;20027;-70
2023/10/16 09:59:22;;;;;;;0.40;0.40;;;18.60;59.60;;;;;;5134802;27;20072;-70
2023/10/16 10:01:51;;;;;;;0.50;0.50;;;18.70;60.00;;;;;;5143225;27;20035;-70
2023/10/16 10:04:19;;;;;;;0.50;0.50;;;18.70;60.20;;;;;;5151554;27;20027;-70
2023/10/16 10:06:50;;;;;;;0.50;0.50;;;18.90;60.10;;;;;;5145721;27;20395;-70
2023/10/16 10:09:22;;;;;;;0.50;0.50;;;19.00;58.80;;;;;;5134800;27;20039;-70
2023/10/16 10:12:14;;;;;;;0.73;0.73;;;19.10;59.20;;;;;;5150778;27;20039;-70
2023/10/16 10:15:26;;;;;;;1.73;0.82;;;19.20;58.90;;;;;;5133454;27;20027;-70
2023/10/16 10:17:55;;;;;;;0.50;0.50;;;19.20;57.70;;;;;;5102766;28;20124;-70
2023/10/16 10:20:39;;;;;;;0.47;0.47;;;19.20;57.80;;;;;;5127189;27;20039;-70
2023/10/16 10:23:06;;;;;;;0.60;0.60;;;19.20;58.30;;;;;;5137501;27;20031;-70
2023/10/16 10:25:37;;;;;;;1.15;1.05;;;19.30;58.60;;;;;;5149793;27;20019;-70
2023/10/16 10:28:28;;;;;;;0.60;0.60;;;19.50;58.40;;;;;;5136727;27;20020;-70
2023/10/16 10:30:55;;;;;;;0.60;0.60;;;19.50;58.10;;;;;;5133664;27;20530;-70
2023/10/16 10:33:38;;;;;;;0.50;0.50;;;19.60;56.60;;;;;;5147886;27;20065;-70
2023/10/16 10:36:32;;;;;;;0.40;0.40;;;19.60;55.80;;;;;;5147113;27;20066;-71
2023/10/16 10:39:25;;;;;;;0.60;0.60;;;19.60;55.90;;;;;;5134124;27;20058;-71
2023/10/16 10:41:54;;;;;;;0.50;0.50;;;19.60;56.70;;;;;;5141816;27;20032;-71
2023/10/16 10:44:29;;;;;;;0.88;0.88;;;19.80;57.30;;;;;;5140992;27;20023;-71
2023/10/16 10:46:55;;;;;;;0.50;0.50;;;20.00;56.70;;;;;;5150463;27;20071;-71
2023/10/16 10:49:34;;;;;;;0.50;0.50;;;20.10;55.90;;;;;;5154518;27;20109;-71
2023/10/16 10:52:07;;;;;;;0.45;0.45;;;20.10;56.20;;;;;;5150077;27;20622;-71
2023/10/16 10:54:42;;;;;;;0.50;0.50;;;20.30;56.40;;;;;;5142523;27;20027;-71
2023/10/16 10:57:17;;;;;;;0.40;0.40;;;20.30;56.40;;;;;;5147045;27;20034;-71
2023/10/16 10:59:45;;;;;;;0.40;0.40;;;20.50;56.60;;;;;;5154792;27;20029;-71
2023/10/16 11:04:54;;;;;;;0.50;0.50;;;20.70;54.90;;;;;;5154695;27;20019;-71
2023/10/16 11:07:29;;;;;;;0.40;0.40;;;20.70;55.00;;;;;;5150776;27;20025;-71
2023/10/16 11:09:57;;;;;;;0.73;0.73;;;20.90;54.80;;;;;;5154537;27;20011;-71
2023/10/16 11:12:30;;;;;;;0.60;0.60;;;21.00;54.60;;;;;;5141988;27;20039;-71
2023/10/16 11:14:56;;;;;;;0.40;0.40;;;21.20;54.10;;;;;;5154350;27;20383;-71
2023/10/16 11:17:35;;;;;;;0.40;0.40;;;21.30;54.80;;;;;;5150745;27;20038;-71
2023/10/16 11:22:58;;;;;;;0.50;0.50;;;21.70;54.70;;;;;;5139124;27;20403;-71
2023/10/16 11:25:28;;;;;;;0.60;0.60;;;21.80;54.60;;;;;;5152373;27;20026;-71
2023/10/16 11:27:57;;;;;;;;;;;22.00;53.50;;;;;;5150986;27;20548;-71
2023/10/16 11:30:26;;;;;;;0.98;0.82;;;22.00;52.20;;;;;;5153902;27;20371;-70
2023/10/16 11:32:53;;;;;;;0.57;0.57;;;22.00;51.80;;;;;;5149644;27;20130;-70
2023/10/16 11:35:19;;;;;;;0.70;0.70;;;22.00;52.70;;;;;;5153971;27;20379;-70
2023/10/16 11:37:55;;;;;;;0.40;0.40;;;22.10;52.40;;;;;;5139180;27;20106;-70
2023/10/16 11:40:31;;;;;;;0.40;0.40;;;22.20;52.70;;;;;;5132818;27;20069;-70
2023/10/16 11:42:58;;;;;;;0.40;0.40;;;22.20;52.00;;;;;;5143558;27;20386;-70
2023/10/16 11:45:24;;;;;;;0.52;0.52;;;22.20;51.60;;;;;;5152899;27;20023;-70
2023/10/16 11:50:38;;;;;;;0.40;0.40;;;22.50;51.40;;;;;;5153882;27;20071;-69
2023/10/16 11:53:07;;;;;;;0.63;0.63;;;22.70;50.90;;;;;;5147883;27;20480;-70
2023/10/16 11:55:37;;;;;;;0.30;0.30;;;22.70;50.50;;;;;;5151754;27;20030;-70
2023/10/16 11:58:03;;;;;;;0.55;0.55;;;22.70;49.80;;;;;;5150287;27;20424;-70
2023/10/16 12:00:30;;;;;;;0.50;0.50;;;22.70;49.20;;;;;;5153789;27;20027;-70
2023/10/16 12:02:56;;;;;;;0.40;0.40;;;22.50;48.70;;;;;;5151224;27;20060;-70
2023/10/16 12:05:23;;;;;;;0.40;0.40;;;22.30;47.80;;;;;;5152967;27;20471;-70
2023/10/16 12:07:48;;;;;;;0.40;0.40;;;22.00;47.80;;;;;;5150362;27;20110;-70
2023/10/16 12:10:15;;;;;;;0.50;0.50;;;21.70;47.90;;;;;;5153380;27;20491;-69
2023/10/16 12:12:41;;;;;;;0.63;0.63;;;21.50;47.40;;;;;;5148923;27;20145;-70
2023/10/16 12:15:09;;;;;;;0.40;0.40;;;21.40;47.80;;;;;;5151369;27;20456;-70
2023/10/16 12:17:36;;;;;;;0.35;0.35;;;21.30;48.10;;;;;;5148851;27;20472;-69
2023/10/16 12:20:12;;;;;;;0.47;0.47;;;21.30;48.20;;;;;;5138499;27;20047;-71
2023/10/16 12:22:39;;;;;;;0.40;0.40;;;21.20;48.20;;;;;;5145819;27;20081;-69
2023/10/16 12:25:09;;;;;;;0.40;0.40;;;21.20;48.40;;;;;;5151309;27;20019;-70
2023/10/16 12:27:36;;;;;;;0.55;0.55;;;21.30;48.10;;;;;;5149923;27;20055;-70
2023/10/16 12:30:03;;;;;;;0.40;0.40;;;21.30;48.30;;;;;;5145338;27;20034;-70
2023/10/16 12:32:29;;;;;;;0.50;0.50;;;21.30;47.60;;;;;;5151842;27;20039;-70
2023/10/16 12:34:58;;;;;;;0.50;0.50;;;21.30;47.30;;;;;;5138309;27;20058;-70
2023/10/16 12:37:23;;;;;;;0.50;0.50;;;21.30;47.00;;;;;;5148300;27;20026;-69
2023/10/16 12:39:52;;;;;;;0.50;0.50;;;21.30;47.10;;;;;;5143718;27;20476;-71
2023/10/16 12:42:19;;;;;;;0.40;0.40;;;21.20;46.70;;;;;;5143279;27;20384;-69
2023/10/16 12:44:45;;;;;;;1.02;0.77;;;21.10;47.10;;;;;;5151256;27;20027;-69
2023/10/16 12:47:13;;;;;;;0.40;0.40;;;21.10;47.00;;;;;;5154081;27;20022;-69
2023/10/16 12:49:39;;;;;;;0.60;0.60;;;21.00;46.80;;;;;;5148323;27;20026;-69
2023/10/16 12:52:05;;;;;;;0.32;0.32;;;20.80;46.90;;;;;;5153765;27;20372;-69
2023/10/16 12:54:31;;;;;;;0.40;0.40;;;20.70;47.10;;;;;;5156145;27;20095;-70
2023/10/16 12:56:57;;;;;;;0.50;0.50;;;20.70;47.50;;;;;;5153900;27;20035;-69
2023/10/16 12:59:26;;;;;;;0.50;0.50;;;20.60;47.40;;;;;;5156504;27;20025;-70
2023/10/16 13:01:52;;;;;;;0.55;0.55;;;20.60;46.80;;;;;;5154478;27;20394;-69
2023/10/16 13:04:19;;;;;;;0.50;0.50;;;20.50;46.80;;;;;;5145898;27;20043;-70
2023/10/16 13:06:45;;;;;;;0.70;0.47;;;20.50;47.10;;;;;;5138188;27;20019;-70
2023/10/16 13:09:16;;;;;;;0.85;0.85;;;20.50;47.30;;;;;;5149556;27;20023;-70
2023/10/16 13:11:42;;;;;;;0.40;0.40;;;20.60;47.10;;;;;;5154214;27;20037;-70
2023/10/16 13:14:09;;;;;;;0.75;0.75;;;20.50;46.50;;;;;;5141851;27;20027;-71
2023/10/16 13:16:34;;;;;;;0.43;0.43;;;20.40;46.70;;;;;;5137786;27;20146;-70
2023/10/16 13:19:02;;;;;;;0.40;0.40;;;20.40;46.60;;;;;;5151264;27;20058;-70
2023/10/16 13:21:35;;;;;;;0.50;0.50;;;20.30;46.70;;;;;;5138926;27;20069;-70
2023/10/16 13:24:16;;;;;;;0.40;0.40;;;20.20;47.00;;;;;;5146368;27;20020;-71
2023/10/16 13:26:41;;;;;;;;;;;20.20;47.30;;;;;;5142476;27;20654;-70
2023/10/16 13:29:09;;;;;;;0.60;0.60;;;20.10;47.40;;;;;;5149724;27;19910;-71
2023/10/16 13:31:36;;;;;;;0.50;0.50;;;20.00;47.10;;;;;;5140239;27;20116;-70
2023/10/16 13:34:03;;;;;;;0.52;0.52;;;19.90;47.50;;;;;;5146224;27;20492;-71
2023/10/16 13:36:35;;;;;;;0.40;0.40;;;19.80;47.50;;;;;;5153931;27;20419;-69
2023/10/16 13:39:02;;;;;;;0.52;0.52;;;19.70;47.50;;;;;;5145482;27;20022;-71
2023/10/16 13:41:29;;;;;;;0.50;0.50;;;19.70;47.60;;;;;;5137191;27;20027;-71
2023/10/16 13:43:55;;;;;;;0.77;0.77;;;19.70;47.50;;;;;;5148199;27;20015;-70
2023/10/16 13:46:20;;;;;;;0.40;0.40;;;19.60;47.70;;;;;;5137608;27;20023;-70
2023/10/16 13:48:47;;;;;;;0.40;0.40;;;19.70;48.10;;;;;;5155458;27;20053;-69
2023/10/16 13:51:16;;;;;;;2.38;1.05;;;19.70;48.30;;;;;;5157195;27;20079;-71
2023/10/16 13:53:48;;;;;;;0.45;0.45;;;19.80;48.30;;;;;;5150942;27;20059;-70
2023/10/16 13:56:16;;;;;;;3.15;0.73;;;19.80;48.40;;;;;;5156327;27;20054;-71
2023/10/16 13:58:45;;;;;;;0.47;0.47;;;19.90;48.50;;;;;;5150271;27;20027;-70
2023/10/16 14:01:11;;;;;;;0.50;0.50;;;20.00;48.60;;;;;;5135408;27;20399;-71
2023/10/16 14:03:37;;;;;;;0.40;0.40;;;20.10;48.60;;;;;;5136423;27;20024;-70
2023/10/16 14:06:12;;;;;;;0.40;0.40;;;20.20;48.30;;;;;;5146022;27;20033;-69
2023/10/16 14:08:41;;;;;;;0.60;0.60;;;20.30;47.90;;;;;;5144317;27;20492;-70
2023/10/16 14:11:11;;;;;;;0.43;0.43;;;20.30;47.80;;;;;;5136487;27;20487;-69
2023/10/16 14:13:40;;;;;;;0.50;0.50;;;20.30;47.50;;;;;;5133646;27;20035;-68
2023/10/16 14:16:17;;;;;;;0.88;0.82;;;20.30;47.60;;;;;;5134262;27;20484;-71
2023/10/16 14:18:43;;;;;;;0.65;0.65;;;20.30;47.80;;;;;;5152121;27;20030;-70
2023/10/16 14:21:13;;;;;;;0.40;0.40;;;20.30;47.70;;;;;;5155331;27;20035;-71
2023/10/16 14:23:40;;;;;;;0.40;0.40;;;20.30;47.50;;;;;;5150215;27;20042;-71
2023/10/16 14:26:21;;;;;;;0.50;0.50;;;20.30;47.50;;;;;;5143691;27;20079;-69
2023/10/16 14:28:52;;;;;;;0.45;0.45;;;20.30;47.40;;;;;;5149148;27;20039;-71
2023/10/16 14:31:21;;;;;;;0.40;0.40;;;20.20;46.80;;;;;;5141794;27;20067;-70
2023/10/16 14:33:49;;;;;;;0.30;0.30;;;20.10;46.90;;;;;;5137068;27;20030;-70
2023/10/16 14:36:19;;;;;;;0.40;0.40;;;20.00;46.40;;;;;;5136260;27;20530;-70
2023/10/16 14:38:47;;;;;;;0.40;0.40;;;19.80;46.60;;;;;;5145121;27;20034;-71
2023/10/16 14:41:17;;;;;;;0.40;0.40;;;19.70;46.60;;;;;;5158059;27;20467;-70
2023/10/16 14:43:46;;;;;;;0.40;0.40;;;19.60;46.90;;;;;;5148129;27;20026;-71
2023/10/16 14:46:12;;;;;;;0.43;0.43;;;19.50;47.00;;;;;;5134553;27;20102;-71
2023/10/16 14:48:45;;;;;;;0.73;0.73;;;19.40;47.00;;;;;;5152916;27;20099;-70
2023/10/16 14:51:13;;;;;;;0.40;0.40;;;19.30;47.10;;;;;;5146494;27;20039;-70